Time;durP1;ratioP1;P1;durP2;ratioP2;P2;SDS_P1;SDS_P2;PMS_P1;PMS_P2;Temp;Humidity;BMP_temperature;BMP_pressure;BME280_temperature;BME280_humidity;BME280_pressure;Samples;Min_cycle;Max_cycle;Signal;HPM_P1;HPM_P2
2022/02/24 00:01:55;;;;;;;15.20;2.95;;;7.90;99.90;;;;;;4972636;28;20216;-70
2022/02/24 00:04:22;;;;;;;11.07;3.33;;;7.90;99.90;;;;;;4956316;28;20133;-66
2022/02/24 00:06:49;;;;;;;8.55;3.30;;;7.90;99.90;;;;;;4956124;28;20047;-66
2022/02/24 00:09:16;;;;;;;8.95;2.28;;;8.00;99.90;;;;;;4972692;28;20043;-66
2022/02/24 00:11:43;;;;;;;10.52;2.85;;;8.00;99.90;;;;;;4975498;28;20052;-66
2022/02/24 00:14:13;;;;;;;;;;;8.00;99.90;;;;;;4959101;28;20054;-66
2022/02/24 00:16:42;;;;;;;9.40;2.95;;;8.10;99.90;;;;;;4964532;28;19922;-66
2022/02/24 00:19:10;;;;;;;11.85;3.20;;;8.10;99.90;;;;;;4961559;28;20407;-66
2022/02/24 00:21:36;;;;;;;7.97;2.22;;;8.10;99.90;;;;;;4954971;28;20381;-66
2022/02/24 00:24:05;;;;;;;13.55;2.88;;;8.10;99.90;;;;;;4968953;28;20049;-66
2022/02/24 00:26:33;;;;;;;8.07;2.03;;;8.10;99.90;;;;;;4986038;28;20070;-66
2022/02/24 00:29:00;;;;;;;12.30;2.90;;;8.10;99.90;;;;;;4953747;28;20051;-66
2022/02/24 00:31:27;;;;;;;11.27;2.63;;;8.10;99.90;;;;;;4955659;28;20051;-67
2022/02/24 00:33:56;;;;;;;11.30;3.08;;;8.10;99.90;;;;;;4966091;28;20089;-66
2022/02/24 00:36:23;;;;;;;15.38;3.72;;;8.10;99.90;;;;;;4958468;28;20516;-66
2022/02/24 00:38:49;;;;;;;10.10;2.53;;;8.10;99.90;;;;;;4962477;28;20051;-65
2022/02/24 00:41:18;;;;;;;7.82;1.70;;;8.10;99.90;;;;;;4956665;28;20055;-65
2022/02/24 00:43:45;;;;;;;9.82;2.83;;;8.00;99.90;;;;;;4946778;28;20055;-65
2022/02/24 00:46:12;;;;;;;8.13;1.83;;;8.00;99.90;;;;;;4964749;28;20146;-65
2022/02/24 00:48:39;;;;;;;8.52;2.22;;;8.00;99.90;;;;;;4956243;28;20089;-66
2022/02/24 00:51:07;;;;;;;10.18;2.20;;;8.00;99.90;;;;;;4953033;28;20407;-65
2022/02/24 00:53:41;;;;;;;10.10;2.50;;;8.00;99.90;;;;;;4954109;28;20059;-66
2022/02/24 00:56:13;;;;;;;5.22;1.67;;;8.00;99.90;;;;;;4954334;29;20054;-67
2022/02/24 00:58:41;;;;;;;7.90;2.25;;;8.00;99.90;;;;;;4967746;28;20051;-67
2022/02/24 01:01:10;;;;;;;3.88;2.03;;;8.00;99.90;;;;;;4952359;28;20054;-66
2022/02/24 01:03:37;;;;;;;6.15;2.47;;;8.00;99.90;;;;;;4953758;28;20051;-72
2022/02/24 01:06:04;;;;;;;7.55;2.30;;;8.00;99.90;;;;;;4978174;28;20043;-65
2022/02/24 01:08:32;;;;;;;9.15;2.42;;;8.00;99.90;;;;;;4953618;28;20048;-66
2022/02/24 01:10:58;;;;;;;7.05;2.13;;;8.00;99.90;;;;;;4956835;28;20055;-65
2022/02/24 01:13:26;;;;;;;9.13;2.42;;;8.00;99.90;;;;;;4955811;28;20510;-66
2022/02/24 01:15:53;;;;;;;8.45;2.88;;;8.00;99.90;;;;;;4953358;28;20059;-66
2022/02/24 01:18:20;;;;;;;6.93;1.88;;;8.00;99.90;;;;;;4950124;28;20043;-65
2022/02/24 01:20:47;;;;;;;11.82;2.67;;;7.90;99.90;;;;;;4956280;28;20043;-66
2022/02/24 01:23:14;;;;;;;9.93;1.75;;;7.90;99.90;;;;;;4953502;28;20050;-66
2022/02/24 01:25:41;;;;;;;10.75;3.10;;;7.90;99.90;;;;;;4958965;28;20051;-66
2022/02/24 01:28:08;;;;;;;3.15;1.70;;;7.90;99.90;;;;;;4954432;28;20406;-66
2022/02/24 01:30:35;;;;;;;7.47;2.40;;;7.90;99.90;;;;;;4959900;28;20055;-68
2022/02/24 01:33:02;;;;;;;6.43;2.13;;;7.90;99.90;;;;;;4984424;28;20073;-66
2022/02/24 01:35:29;;;;;;;11.93;2.13;;;7.90;99.90;;;;;;4967045;28;20058;-66
2022/02/24 01:37:56;;;;;;;11.25;2.00;;;7.90;99.90;;;;;;4983452;28;20581;-66
2022/02/24 01:40:25;;;;;;;8.35;2.08;;;7.90;99.90;;;;;;4952481;28;20127;-65
2022/02/24 01:42:52;;;;;;;12.93;3.35;;;7.90;99.90;;;;;;4951351;28;20043;-66
2022/02/24 01:45:19;;;;;;;8.73;1.73;;;8.00;99.90;;;;;;4985102;28;20063;-66
2022/02/24 01:47:46;;;;;;;8.23;1.70;;;8.00;99.90;;;;;;4949961;29;20055;-66
2022/02/24 01:50:13;;;;;;;10.90;2.25;;;8.00;99.90;;;;;;4951120;28;20051;-65
2022/02/24 01:52:40;;;;;;;5.82;1.70;;;8.00;99.90;;;;;;4956744;28;20482;-65
2022/02/24 01:55:07;;;;;;;10.20;2.97;;;8.10;99.90;;;;;;4955826;28;20403;-65
2022/02/24 01:57:34;;;;;;;8.32;2.17;;;8.10;99.90;;;;;;4971934;28;20085;-67
2022/02/24 02:00:03;;;;;;;8.43;2.25;;;8.20;99.90;;;;;;4925480;28;20059;-66
2022/02/24 02:02:30;;;;;;;11.17;2.87;;;8.20;99.90;;;;;;4971795;28;20123;-68
2022/02/24 02:04:57;;;;;;;9.40;2.90;;;8.20;99.90;;;;;;4971890;28;20102;-67
2022/02/24 02:07:24;;;;;;;9.52;2.55;;;8.30;99.90;;;;;;4957210;28;20051;-65
2022/02/24 02:09:51;;;;;;;7.70;1.75;;;8.30;99.90;;;;;;4944959;28;20050;-65
2022/02/24 02:12:19;;;;;;;9.50;2.53;;;8.30;99.90;;;;;;4971001;28;20047;-65
2022/02/24 02:14:46;;;;;;;17.65;3.60;;;8.40;99.90;;;;;;4989910;28;20054;-66
2022/02/24 02:17:14;;;;;;;11.10;3.08;;;8.40;99.90;;;;;;4952795;28;20098;-69
2022/02/24 02:19:41;;;;;;;11.43;2.72;;;8.30;99.90;;;;;;4954224;28;20089;-65
2022/02/24 02:22:08;;;;;;;10.02;3.72;;;8.30;99.90;;;;;;4955567;28;20051;-65
2022/02/24 02:24:39;;;;;;;8.93;2.75;;;8.40;99.90;;;;;;4971106;28;20058;-65
2022/02/24 02:27:06;;;;;;;6.55;2.10;;;8.30;99.90;;;;;;4939271;29;20052;-67
2022/02/24 02:29:33;;;;;;;8.63;2.20;;;8.30;99.90;;;;;;4955631;28;20058;-66
2022/02/24 02:32:00;;;;;;;12.25;2.65;;;8.20;99.90;;;;;;4969233;28;20051;-65
2022/02/24 02:34:27;;;;;;;14.63;2.53;;;8.10;99.90;;;;;;4971443;28;20058;-65
2022/02/24 02:36:54;;;;;;;9.30;1.98;;;8.10;99.90;;;;;;4958800;28;20134;-67
2022/02/24 02:39:21;;;;;;;12.02;2.97;;;8.10;99.90;;;;;;4968723;28;20507;-66
2022/02/24 02:41:48;;;;;;;13.40;3.53;;;8.00;99.90;;;;;;4947754;28;20410;-67
2022/02/24 02:44:15;;;;;;;8.95;3.00;;;8.00;99.90;;;;;;4953316;28;20051;-66
2022/02/24 02:46:43;;;;;;;9.75;2.38;;;8.00;99.90;;;;;;4953848;28;20047;-65
2022/02/24 02:49:10;;;;;;;12.88;2.85;;;8.00;99.90;;;;;;4952506;28;20176;-65
2022/02/24 02:51:40;;;;;;;12.43;2.67;;;8.00;99.90;;;;;;4954333;28;20047;-65
2022/02/24 02:54:07;;;;;;;;;;;8.00;99.90;;;;;;4961676;28;20047;-65
2022/02/24 02:56:33;;;;;;;6.75;1.77;;;7.90;99.90;;;;;;4985139;28;19926;-70
2022/02/24 02:59:00;;;;;;;10.30;2.22;;;8.00;99.90;;;;;;4953738;28;20050;-65
2022/02/24 03:01:27;;;;;;;5.90;1.90;;;7.90;99.90;;;;;;4957628;28;20491;-65
2022/02/24 03:03:55;;;;;;;11.20;2.00;;;7.90;99.90;;;;;;4966083;28;20043;-65
2022/02/24 03:06:22;;;;;;;10.73;2.88;;;7.90;99.90;;;;;;4959594;28;20043;-66
2022/02/24 03:08:48;;;;;;;14.73;2.55;;;7.90;99.90;;;;;;4959357;28;20054;-66
2022/02/24 03:11:17;;;;;;;9.48;2.05;;;7.90;99.90;;;;;;4956531;28;20051;-65
2022/02/24 03:13:44;;;;;;;9.93;2.03;;;8.00;99.90;;;;;;4952822;28;20043;-66
2022/02/24 03:16:11;;;;;;;13.20;3.05;;;8.00;99.90;;;;;;4985240;28;20085;-66
2022/02/24 03:18:38;;;;;;;16.27;2.88;;;8.00;99.90;;;;;;4984103;28;20048;-66
2022/02/24 03:21:05;;;;;;;8.27;2.47;;;8.00;99.90;;;;;;4945619;28;20058;-65
2022/02/24 03:23:37;;;;;;;10.63;2.95;;;7.90;99.90;;;;;;4955885;28;20043;-65
2022/02/24 03:26:03;;;;;;;19.60;4.28;;;7.90;99.90;;;;;;4953687;28;20051;-65
2022/02/24 03:28:30;;;;;;;13.52;3.30;;;7.90;99.90;;;;;;4960738;28;20039;-66
2022/02/24 03:30:57;;;;;;;8.45;2.08;;;7.90;99.90;;;;;;4967373;28;20061;-65
2022/02/24 03:33:24;;;;;;;11.98;2.25;;;7.90;99.90;;;;;;4965298;28;20051;-66
2022/02/24 03:35:51;;;;;;;12.82;4.75;;;7.90;99.90;;;;;;4967192;28;20051;-65
2022/02/24 03:38:18;;;;;;;9.80;2.83;;;7.90;99.90;;;;;;4963255;28;20059;-65
2022/02/24 03:40:45;;;;;;;10.60;3.08;;;7.90;99.90;;;;;;4953673;29;20055;-69
2022/02/24 03:43:12;;;;;;;11.50;3.72;;;7.90;99.90;;;;;;4954329;28;20538;-65
2022/02/24 03:45:39;;;;;;;11.00;3.22;;;7.90;99.90;;;;;;4962725;28;20054;-65
2022/02/24 03:48:06;;;;;;;18.65;4.40;;;7.90;99.90;;;;;;4973658;28;20051;-65
2022/02/24 03:50:33;;;;;;;6.32;2.15;;;7.90;99.90;;;;;;4972580;28;20063;-66
2022/02/24 03:53:00;;;;;;;13.05;3.40;;;7.90;99.90;;;;;;4966681;28;20494;-65
2022/02/24 03:55:27;;;;;;;5.20;2.20;;;8.00;99.90;;;;;;4948908;28;20047;-66
2022/02/24 03:57:54;;;;;;;10.88;1.92;;;8.00;99.90;;;;;;4956040;28;20047;-65
2022/02/24 04:00:21;;;;;;;10.80;3.25;;;8.10;99.90;;;;;;4970766;28;20430;-66
2022/02/24 04:02:48;;;;;;;17.45;3.28;;;8.10;99.90;;;;;;4971606;28;20080;-66
2022/02/24 04:05:16;;;;;;;8.20;2.42;;;8.20;99.90;;;;;;4973673;28;20058;-65
2022/02/24 04:07:42;;;;;;;9.52;2.70;;;8.20;99.90;;;;;;4962309;28;20058;-65
2022/02/24 04:10:10;;;;;;;10.60;3.50;;;8.20;99.90;;;;;;4958381;28;20483;-66
2022/02/24 04:12:36;;;;;;;16.30;3.03;;;8.30;99.90;;;;;;4958398;28;20410;-65
2022/02/24 04:15:05;;;;;;;7.25;2.20;;;8.30;99.90;;;;;;4969037;28;20074;-69
2022/02/24 04:17:32;;;;;;;9.65;2.35;;;8.40;99.90;;;;;;4935364;28;20431;-65
2022/02/24 04:19:59;;;;;;;11.80;2.55;;;8.40;99.90;;;;;;4961891;28;20043;-65
2022/02/24 04:22:26;;;;;;;7.07;2.53;;;8.50;99.90;;;;;;4963902;28;20053;-67
2022/02/24 04:24:53;;;;;;;9.93;3.42;;;8.50;99.90;;;;;;4969985;28;20063;-65
2022/02/24 04:27:20;;;;;;;12.07;3.83;;;8.50;99.90;;;;;;4956849;28;20514;-65
2022/02/24 04:29:47;;;;;;;9.68;3.72;;;8.60;99.90;;;;;;4963535;28;20051;-65
2022/02/24 04:32:14;;;;;;;11.63;2.55;;;8.60;99.90;;;;;;4964566;28;20054;-66
2022/02/24 04:34:41;;;;;;;12.52;4.00;;;8.60;99.90;;;;;;4985825;28;20431;-66
2022/02/24 04:37:10;;;;;;;12.02;3.65;;;8.60;99.90;;;;;;4957292;28;20057;-65
2022/02/24 04:39:37;;;;;;;6.97;2.00;;;8.60;99.90;;;;;;4956275;28;20059;-65
2022/02/24 04:42:04;;;;;;;16.85;2.30;;;8.60;99.90;;;;;;4965742;28;20054;-66
2022/02/24 04:44:31;;;;;;;10.32;2.53;;;8.60;99.90;;;;;;4956390;28;20051;-66
2022/02/24 04:46:58;;;;;;;7.47;2.13;;;8.70;99.90;;;;;;4956526;28;20059;-66
2022/02/24 04:49:25;;;;;;;12.40;2.50;;;8.70;99.90;;;;;;4945218;28;20077;-66
2022/02/24 04:51:52;;;;;;;16.45;3.65;;;8.70;99.90;;;;;;4969820;28;20047;-66
2022/02/24 04:54:19;;;;;;;10.68;2.45;;;8.70;99.90;;;;;;4964753;28;20043;-65
2022/02/24 04:56:46;;;;;;;15.70;3.15;;;8.60;99.90;;;;;;4947468;28;20103;-66
2022/02/24 04:59:13;;;;;;;9.88;2.80;;;8.70;99.90;;;;;;4957715;28;20059;-66
2022/02/24 05:01:40;;;;;;;8.77;2.58;;;8.70;99.90;;;;;;4962941;28;20054;-67
2022/02/24 05:04:07;;;;;;;7.93;2.60;;;8.70;99.90;;;;;;4966922;28;20054;-66
2022/02/24 05:06:34;;;;;;;16.08;3.75;;;8.70;99.90;;;;;;4947393;28;20047;-65
2022/02/24 05:09:01;;;;;;;8.95;2.92;;;8.70;99.90;;;;;;4961619;28;20154;-65
2022/02/24 05:11:28;;;;;;;7.53;2.20;;;8.70;99.90;;;;;;4970623;28;20053;-65
2022/02/24 05:13:55;;;;;;;9.90;2.05;;;8.70;99.90;;;;;;4930486;29;20051;-65
2022/02/24 05:16:22;;;;;;;9.95;2.38;;;8.70;99.90;;;;;;4952486;28;20055;-65
2022/02/24 05:18:49;;;;;;;8.38;2.10;;;8.70;99.90;;;;;;4955980;28;20043;-66
2022/02/24 05:21:17;;;;;;;11.75;2.78;;;8.70;99.90;;;;;;4957629;28;20053;-67
2022/02/24 05:23:45;;;;;;;10.40;2.75;;;8.70;99.90;;;;;;4984850;28;20039;-66
2022/02/24 05:26:13;;;;;;;;;;;8.80;99.90;;;;;;4956613;28;20051;-66
2022/02/24 05:28:40;;;;;;;9.88;3.55;;;8.80;99.90;;;;;;4957230;28;19922;-66
2022/02/24 05:31:08;;;;;;;9.90;2.10;;;8.70;99.90;;;;;;4951593;28;20406;-66
2022/02/24 05:33:35;;;;;;;10.73;2.42;;;8.70;99.90;;;;;;4948422;28;20039;-66
2022/02/24 05:36:03;;;;;;;5.30;2.28;;;8.70;99.90;;;;;;4954701;28;20051;-66
2022/02/24 05:38:30;;;;;;;9.50;2.45;;;8.60;99.90;;;;;;4956399;28;20043;-66
2022/02/24 05:40:58;;;;;;;8.05;2.08;;;8.60;99.90;;;;;;4987817;28;20098;-66
2022/02/24 05:43:25;;;;;;;12.25;2.90;;;8.50;99.90;;;;;;4966340;28;20047;-66
2022/02/24 05:45:52;;;;;;;8.93;2.47;;;8.50;99.90;;;;;;4963618;28;20050;-66
2022/02/24 05:48:19;;;;;;;6.93;2.47;;;8.50;99.90;;;;;;4951470;28;20122;-66
2022/02/24 05:50:46;;;;;;;11.80;2.30;;;8.40;99.90;;;;;;4960436;28;20049;-67
2022/02/24 05:53:13;;;;;;;8.73;2.97;;;8.40;99.90;;;;;;4965613;28;20612;-66
2022/02/24 05:55:40;;;;;;;10.73;3.17;;;8.40;99.90;;;;;;4965226;28;20109;-66
2022/02/24 05:58:07;;;;;;;11.45;2.85;;;8.40;99.90;;;;;;4943862;28;20059;-67
2022/02/24 06:00:34;;;;;;;8.52;2.10;;;8.30;99.90;;;;;;4960819;28;20047;-66
2022/02/24 06:03:01;;;;;;;7.30;2.45;;;8.30;99.90;;;;;;4958153;28;20090;-66
2022/02/24 06:05:29;;;;;;;14.65;3.63;;;8.30;99.90;;;;;;4969721;28;20054;-66
2022/02/24 06:07:57;;;;;;;9.35;2.65;;;8.30;99.90;;;;;;4983719;28;20066;-68
2022/02/24 06:10:24;;;;;;;12.50;3.92;;;8.30;99.90;;;;;;4959142;28;20487;-67
2022/02/24 06:12:57;;;;;;;14.65;2.90;;;8.30;99.90;;;;;;4955080;28;20495;-66
2022/02/24 06:15:24;;;;;;;10.73;2.67;;;8.30;99.90;;;;;;4953296;28;20082;-69
2022/02/24 06:17:51;;;;;;;12.05;3.60;;;8.30;99.90;;;;;;4954152;28;20059;-66
2022/02/24 06:20:18;;;;;;;6.60;2.70;;;8.30;99.90;;;;;;4962087;28;20077;-66
2022/02/24 06:22:47;;;;;;;9.68;2.38;;;8.20;99.90;;;;;;4958806;28;20055;-66
2022/02/24 06:25:14;;;;;;;18.52;4.40;;;8.20;99.90;;;;;;4985482;28;20487;-66
2022/02/24 06:27:41;;;;;;;11.80;2.20;;;8.20;99.90;;;;;;4963669;28;20047;-65
2022/02/24 06:30:08;;;;;;;10.52;3.45;;;8.20;99.90;;;;;;4949406;28;20403;-66
2022/02/24 06:32:37;;;;;;;9.05;2.80;;;8.20;99.90;;;;;;4954847;28;20047;-66
2022/02/24 06:35:05;;;;;;;35.47;18.33;;;8.20;99.90;;;;;;4957093;28;20055;-68
2022/02/24 06:37:32;;;;;;;22.65;6.43;;;8.20;99.90;;;;;;4939555;28;20059;-66
2022/02/24 06:39:59;;;;;;;13.35;3.15;;;8.20;99.90;;;;;;4954001;28;20402;-67
2022/02/24 06:42:26;;;;;;;16.10;3.58;;;8.10;99.90;;;;;;4961137;28;20050;-67
2022/02/24 06:44:53;;;;;;;11.30;2.70;;;8.10;99.90;;;;;;4963561;28;20055;-66
2022/02/24 06:47:21;;;;;;;11.35;3.40;;;8.20;99.90;;;;;;4982745;28;20337;-66
2022/02/24 06:49:50;;;;;;;18.02;4.82;;;8.20;99.90;;;;;;4967137;28;20054;-66
2022/02/24 06:52:17;;;;;;;;;;;8.20;99.90;;;;;;4945849;29;20047;-66
2022/02/24 06:54:44;;;;;;;25.67;13.38;;;8.30;99.90;;;;;;4958324;28;19926;-70
2022/02/24 06:57:14;;;;;;;10.82;3.47;;;8.30;99.90;;;;;;4969722;28;20055;-67
2022/02/24 06:59:44;;;;;;;15.15;3.85;;;8.40;99.90;;;;;;4953152;28;20051;-64
2022/02/24 07:02:11;;;;;;;11.35;3.75;;;8.40;99.90;;;;;;4984118;28;20054;-66
2022/02/24 07:04:38;;;;;;;12.73;3.42;;;8.40;99.90;;;;;;4954996;28;20090;-68
2022/02/24 07:07:05;;;;;;;23.35;9.38;;;8.40;99.90;;;;;;4937367;28;20078;-68
2022/02/24 07:09:32;;;;;;;14.77;6.63;;;8.40;99.90;;;;;;4959395;28;20083;-68
2022/02/24 07:12:00;;;;;;;13.02;4.13;;;8.50;99.90;;;;;;4961119;28;20058;-68
2022/02/24 07:14:27;;;;;;;13.50;3.20;;;8.50;99.90;;;;;;4954751;28;20039;-68
2022/02/24 07:16:55;;;;;;;7.13;2.05;;;8.50;99.90;;;;;;4956249;28;20054;-65
2022/02/24 07:19:22;;;;;;;17.70;12.13;;;8.30;99.90;;;;;;4960666;28;20051;-66
2022/02/24 07:21:49;;;;;;;10.02;5.25;;;8.20;99.90;;;;;;4964980;28;20138;-69
2022/02/24 07:24:16;;;;;;;5.07;2.08;;;8.00;99.90;;;;;;4961427;28;20491;-67
2022/02/24 07:26:44;;;;;;;6.07;1.88;;;7.90;99.90;;;;;;4956070;28;20657;-67
2022/02/24 07:29:11;;;;;;;3.10;1.08;;;7.70;99.90;;;;;;4954083;28;20047;-68
2022/02/24 07:31:38;;;;;;;2.88;1.13;;;7.60;99.90;;;;;;4985549;28;20051;-67
2022/02/24 07:34:06;;;;;;;2.33;0.80;;;7.40;99.90;;;;;;4955573;28;20071;-68
2022/02/24 07:36:33;;;;;;;5.28;1.45;;;7.30;99.90;;;;;;4985696;28;20051;-68
2022/02/24 07:39:00;;;;;;;3.72;2.03;;;7.20;99.90;;;;;;4972743;28;20055;-66
2022/02/24 07:41:27;;;;;;;7.13;1.50;;;7.10;99.90;;;;;;4971938;28;20058;-67
2022/02/24 07:43:54;;;;;;;4.18;1.23;;;7.00;99.90;;;;;;4958661;28;20415;-67
2022/02/24 07:46:21;;;;;;;5.97;1.38;;;7.00;99.90;;;;;;4966143;28;20113;-64
2022/02/24 07:48:50;;;;;;;2.80;1.10;;;6.90;99.90;;;;;;4969109;28;20050;-66
2022/02/24 07:51:17;;;;;;;1.70;1.27;;;6.90;99.90;;;;;;4961579;28;20169;-69
2022/02/24 07:53:44;;;;;;;3.35;1.40;;;6.80;99.90;;;;;;4962092;28;20061;-72
2022/02/24 07:56:11;;;;;;;5.35;1.52;;;6.80;99.90;;;;;;4963332;28;20152;-68
2022/02/24 07:58:37;;;;;;;3.15;1.05;;;6.70;99.90;;;;;;4954611;28;20051;-67
2022/02/24 08:01:05;;;;;;;6.10;1.58;;;6.70;99.90;;;;;;4969099;28;20058;-70
2022/02/24 08:03:33;;;;;;;6.07;1.52;;;6.70;99.90;;;;;;4953911;28;20043;-68
2022/02/24 08:06:00;;;;;;;4.25;1.95;;;6.70;99.90;;;;;;4964062;28;20480;-71
2022/02/24 08:08:27;;;;;;;5.57;1.20;;;6.70;99.90;;;;;;4986245;28;20043;-71
2022/02/24 08:10:54;;;;;;;5.22;1.20;;;6.70;99.90;;;;;;4971841;28;20118;-72
2022/02/24 08:13:23;;;;;;;2.43;0.97;;;6.70;99.90;;;;;;4970821;28;20133;-72
2022/02/24 08:15:53;;;;;;;5.80;1.38;;;6.80;99.90;;;;;;4970515;28;20295;-72
2022/02/24 08:18:21;;;;;;;4.03;1.05;;;6.80;99.90;;;;;;4939010;28;20059;-72
2022/02/24 08:20:48;;;;;;;2.38;0.80;;;6.80;99.90;;;;;;4955991;28;20058;-71
2022/02/24 08:23:18;;;;;;;6.88;1.45;;;6.90;99.90;;;;;;4958954;28;20059;-72
2022/02/24 08:25:45;;;;;;;3.38;1.25;;;6.90;99.90;;;;;;4970318;28;20047;-72
2022/02/24 08:28:12;;;;;;;1.92;1.00;;;6.90;99.90;;;;;;4925604;28;20438;-71
2022/02/24 08:30:39;;;;;;;3.10;1.50;;;7.00;99.90;;;;;;4955852;28;20055;-73
2022/02/24 08:33:06;;;;;;;4.15;1.15;;;7.00;99.90;;;;;;4970344;28;20077;-71
2022/02/24 08:35:34;;;;;;;3.45;1.23;;;7.00;99.90;;;;;;4942199;29;20074;-72
2022/02/24 08:38:01;;;;;;;40.38;25.92;;;7.10;99.90;;;;;;4966038;28;20043;-72
2022/02/24 08:40:28;;;;;;;77.53;55.58;;;7.20;99.90;;;;;;4980934;28;20047;-72
2022/02/24 08:42:56;;;;;;;10.30;6.88;;;7.30;99.90;;;;;;4956496;28;20510;-71
2022/02/24 08:45:23;;;;;;;5.85;2.78;;;7.30;99.90;;;;;;4967930;28;20051;-71
2022/02/24 08:47:50;;;;;;;3.88;2.15;;;7.30;99.90;;;;;;4956799;28;20125;-72
2022/02/24 08:50:19;;;;;;;2.63;1.33;;;7.30;99.90;;;;;;4958735;28;20409;-76
2022/02/24 08:53:06;;;;;;;4.47;1.48;;;7.30;99.90;;;;;;4981801;28;20110;-72
2022/02/24 08:55:33;;;;;;;5.05;1.45;;;7.30;99.90;;;;;;4955653;28;20047;-71
2022/02/24 08:58:02;;;;;;;4.40;1.30;;;7.30;99.90;;;;;;4957327;28;20136;-71
2022/02/24 09:00:32;;;;;;;1.65;1.00;;;7.30;99.90;;;;;;4988408;28;20046;-72
2022/02/24 09:02:59;;;;;;;7.72;1.90;;;7.30;99.90;;;;;;4951537;28;20055;-72
2022/02/24 09:05:26;;;;;;;2.67;1.35;;;7.30;99.90;;;;;;4971898;28;20077;-72
2022/02/24 09:07:53;;;;;;;5.93;1.63;;;7.40;99.90;;;;;;4951954;28;20578;-74
2022/02/24 09:10:27;;;;;;;8.25;2.03;;;7.40;99.90;;;;;;4961100;28;20051;-73
2022/02/24 09:12:56;;;;;;;5.18;2.15;;;7.40;99.90;;;;;;4972513;28;20057;-78
2022/02/24 09:15:23;;;;;;;5.70;1.58;;;7.40;99.90;;;;;;4965125;28;20051;-71
2022/02/24 09:17:50;;;;;;;3.30;1.10;;;7.30;99.90;;;;;;4943099;28;20059;-69
2022/02/24 09:20:17;;;;;;;1.45;0.73;;;7.10;99.90;;;;;;4960184;28;20047;-69
2022/02/24 09:22:44;;;;;;;3.25;0.90;;;6.90;99.90;;;;;;4954676;28;20363;-71
2022/02/24 09:25:11;;;;;;;1.88;0.80;;;6.70;99.90;;;;;;4964379;28;20498;-72
2022/02/24 09:27:40;;;;;;;2.38;1.05;;;6.60;99.90;;;;;;4968397;28;20156;-69
2022/02/24 09:30:07;;;;;;;2.95;0.98;;;6.50;99.90;;;;;;4955909;28;20043;-70
2022/02/24 09:32:34;;;;;;;3.67;0.98;;;6.50;99.90;;;;;;4949913;28;20047;-71
2022/02/24 09:35:02;;;;;;;4.20;0.70;;;6.50;99.90;;;;;;4939279;28;20491;-66
2022/02/24 09:37:34;;;;;;;3.60;1.00;;;6.40;99.90;;;;;;4963221;28;20045;-66
2022/02/24 09:40:05;;;;;;;2.65;0.70;;;6.40;99.90;;;;;;4970724;28;20054;-67
2022/02/24 09:42:43;;;;;;;6.88;1.20;;;6.40;99.90;;;;;;4954828;28;20051;-68
2022/02/24 09:45:11;;;;;;;2.22;0.90;;;6.40;99.90;;;;;;4957389;28;20106;-71
2022/02/24 09:47:38;;;;;;;2.72;1.55;;;6.40;99.90;;;;;;4959555;28;20130;-69
2022/02/24 09:50:06;;;;;;;4.03;1.00;;;6.40;99.90;;;;;;4985173;28;20070;-68
2022/02/24 09:52:33;;;;;;;3.28;1.08;;;6.30;99.90;;;;;;4978050;28;20055;-68
2022/02/24 09:55:00;;;;;;;1.98;0.80;;;6.20;99.90;;;;;;4954692;28;20053;-70
2022/02/24 09:57:27;;;;;;;1.15;0.70;;;6.20;99.90;;;;;;4966781;28;20057;-68
2022/02/24 09:59:54;;;;;;;1.73;0.82;;;6.10;99.90;;;;;;4953468;28;20562;-67
2022/02/24 10:02:25;;;;;;;2.33;1.13;;;6.00;99.90;;;;;;4953785;28;20047;-69
2022/02/24 10:05:19;;;;;;;2.80;0.88;;;5.90;99.90;;;;;;4956532;28;20127;-68
2022/02/24 10:07:49;;;;;;;3.75;0.70;;;5.80;99.90;;;;;;4955190;28;20047;-67
2022/02/24 10:10:24;;;;;;;0.55;0.50;;;5.80;99.90;;;;;;4953115;28;20055;-67
2022/02/24 10:13:07;;;;;;;1.27;0.70;;;5.80;99.90;;;;;;4969470;28;20054;-68
2022/02/24 10:15:38;;;;;;;1.65;0.70;;;5.80;99.90;;;;;;4966968;28;20086;-66
2022/02/24 10:18:10;;;;;;;0.70;0.60;;;5.90;99.90;;;;;;4963520;28;20180;-66
2022/02/24 10:21:00;;;;;;;2.25;1.08;;;5.90;99.90;;;;;;4953185;29;20087;-66
2022/02/24 10:23:32;;;;;;;;;;;5.80;99.90;;;;;;4941757;28;20368;-70
2022/02/24 10:26:25;;;;;;;1.85;0.70;;;5.80;99.90;;;;;;4952842;29;20024;-66
2022/02/24 10:28:52;;;;;;;2.78;0.90;;;5.80;99.90;;;;;;4953164;29;20051;-69
2022/02/24 10:31:25;;;;;;;2.25;0.73;;;5.90;99.90;;;;;;4952499;29;20047;-74
2022/02/24 10:34:14;;;;;;;1.30;0.55;;;6.00;99.90;;;;;;4983244;28;20065;-72
2022/02/24 10:36:41;;;;;;;2.22;0.70;;;6.00;99.90;;;;;;4953160;28;20134;-75
2022/02/24 10:39:11;;;;;;;80.00;69.18;;;6.10;99.90;;;;;;4954004;28;20058;-77
2022/02/24 10:41:42;;;;;;;7.40;5.60;;;6.20;99.90;;;;;;4958186;28;20130;-71
2022/02/24 10:44:19;;;;;;;4.15;2.25;;;6.30;99.90;;;;;;4943603;28;20122;-70
2022/02/24 10:47:04;;;;;;;50.15;35.50;;;6.40;99.90;;;;;;4958371;28;20047;-71
2022/02/24 10:49:36;;;;;;;6.20;4.38;;;6.50;99.90;;;;;;4953904;28;20094;-69
2022/02/24 10:52:18;;;;;;;5.65;1.75;;;6.50;99.90;;;;;;4955251;28;20480;-73
2022/02/24 10:55:03;;;;;;;2.97;1.52;;;6.60;99.90;;;;;;4957051;29;20059;-69
2022/02/24 10:57:35;;;;;;;2.40;1.33;;;6.70;99.90;;;;;;4941479;29;20047;-73
2022/02/24 11:00:05;;;;;;;2.53;1.00;;;6.80;99.90;;;;;;4957043;28;20057;-71
2022/02/24 11:02:32;;;;;;;2.65;1.05;;;6.80;99.90;;;;;;4988926;28;20051;-74
2022/02/24 11:05:00;;;;;;;3.63;1.50;;;6.70;99.90;;;;;;4972816;28;20051;-76
2022/02/24 11:07:30;;;;;;;;;;;6.70;99.90;;;;;;4987651;28;20454;-72
2022/02/24 11:09:57;;;;;;;1.25;0.80;;;6.70;99.90;;;;;;4955421;29;19923;-70
2022/02/24 11:12:28;;;;;;;1.67;1.13;;;6.60;99.90;;;;;;4988153;28;20047;-68
2022/02/24 11:14:56;;;;;;;4.20;1.02;;;6.60;99.90;;;;;;4957036;28;20051;-73
2022/02/24 11:17:23;;;;;;;2.88;0.98;;;6.60;99.90;;;;;;4987395;28;20411;-72
2022/02/24 11:19:50;;;;;;;2.55;1.15;;;6.60;99.90;;;;;;4988120;28;20047;-69
2022/02/24 11:22:20;;;;;;;2.03;1.30;;;6.60;99.90;;;;;;4955624;29;20070;-69
2022/02/24 11:24:47;;;;;;;2.53;1.20;;;6.60;99.90;;;;;;4971481;28;20050;-72
2022/02/24 11:27:42;;;;;;;3.20;1.10;;;6.60;99.90;;;;;;4975394;28;20130;-72
2022/02/24 11:30:13;;;;;;;3.55;1.20;;;6.60;99.90;;;;;;4941773;29;20175;-71
2022/02/24 11:32:45;;;;;;;2.35;1.10;;;6.60;99.90;;;;;;4971112;28;20491;-71
2022/02/24 11:35:15;;;;;;;7.35;2.15;;;6.60;99.90;;;;;;4939596;29;20471;-68
2022/02/24 11:37:50;;;;;;;3.25;1.45;;;6.60;99.90;;;;;;4955454;28;20126;-69
2022/02/24 11:40:17;;;;;;;2.97;1.25;;;6.60;99.90;;;;;;4943662;28;20079;-71
2022/02/24 11:42:46;;;;;;;3.80;1.45;;;6.70;99.90;;;;;;4960427;28;20106;-69
2022/02/24 11:45:25;;;;;;;3.15;1.42;;;6.70;99.90;;;;;;4955546;28;20050;-75
2022/02/24 11:48:11;;;;;;;2.92;1.48;;;6.80;99.90;;;;;;4960238;28;20051;-70
2022/02/24 11:50:40;;;;;;;3.50;1.63;;;6.80;99.90;;;;;;4951020;28;20047;-77
2022/02/24 11:53:28;;;;;;;4.90;1.70;;;6.70;99.90;;;;;;4951526;28;20055;-75
2022/02/24 11:56:13;;;;;;;5.50;1.75;;;6.80;99.90;;;;;;4943823;28;20119;-71
2022/02/24 11:58:47;;;;;;;4.53;1.73;;;6.80;99.90;;;;;;4956955;28;20122;-71
2022/02/24 12:01:42;;;;;;;16.35;7.32;;;6.90;99.40;;;;;;4957492;28;20079;-71
2022/02/24 12:04:25;;;;;;;4.75;1.73;;;6.90;97.50;;;;;;4959396;28;20051;-70
2022/02/24 12:06:53;;;;;;;4.32;2.17;;;6.90;95.80;;;;;;4960677;28;20439;-70
2022/02/24 12:09:32;;;;;;;2.63;1.48;;;6.80;94.10;;;;;;4964082;28;20051;-71
2022/02/24 12:12:17;;;;;;;3.45;1.40;;;6.80;94.90;;;;;;4949011;28;20043;-66
2022/02/24 12:14:44;;;;;;;6.63;1.48;;;6.90;94.40;;;;;;4970809;28;20083;-67
2022/02/24 12:17:14;;;;;;;6.47;1.60;;;7.00;95.20;;;;;;4973620;28;20465;-70
2022/02/24 12:19:56;;;;;;;5.18;1.60;;;7.10;94.20;;;;;;4959172;28;20059;-71
2022/02/24 12:22:39;;;;;;;6.50;1.70;;;7.20;93.60;;;;;;4959773;28;20107;-72
2022/02/24 12:25:18;;;;;;;2.95;1.45;;;7.30;93.50;;;;;;4954913;29;20296;-72
2022/02/24 12:28:06;;;;;;;3.22;1.85;;;7.40;92.40;;;;;;4956274;28;20046;-69
2022/02/24 12:30:42;;;;;;;4.15;1.40;;;7.50;92.20;;;;;;4959858;28;20051;-78
2022/02/24 12:33:19;;;;;;;4.28;2.22;;;7.70;90.60;;;;;;4987200;28;20055;-70
2022/02/24 12:35:47;;;;;;;7.80;1.65;;;7.70;91.60;;;;;;4982554;28;20086;-74
2022/02/24 12:38:17;;;;;;;3.90;1.83;;;7.80;92.50;;;;;;4985284;28;20142;-70
2022/02/24 12:40:46;;;;;;;7.32;2.22;;;7.90;90.90;;;;;;4952258;28;20043;-70
2022/02/24 12:43:14;;;;;;;5.00;1.35;;;8.00;90.40;;;;;;4963146;28;20050;-70
2022/02/24 12:45:44;;;;;;;6.70;1.48;;;8.00;88.90;;;;;;4975054;28;20051;-71
2022/02/24 12:48:12;;;;;;;5.40;2.03;;;8.00;85.70;;;;;;4973605;28;20105;-70
2022/02/24 12:50:42;;;;;;;3.83;1.55;;;7.90;88.00;;;;;;4968304;28;20101;-75
2022/02/24 12:53:15;;;;;;;4.28;1.63;;;7.90;86.90;;;;;;4962300;28;20046;-70
2022/02/24 12:55:43;;;;;;;7.43;2.47;;;7.90;88.70;;;;;;4958949;28;20059;-73
2022/02/24 12:58:12;;;;;;;21.02;13.38;;;7.90;87.80;;;;;;4964833;28;20053;-70
2022/02/24 13:00:40;;;;;;;11.18;3.60;;;7.90;89.00;;;;;;4963882;28;20370;-71
2022/02/24 13:03:08;;;;;;;8.00;2.40;;;7.90;89.40;;;;;;4950689;28;20049;-72
2022/02/24 13:05:45;;;;;;;3.63;1.60;;;8.00;88.50;;;;;;4942256;29;20130;-71